Wailuku, Hawaii
Current Conditions -  °F | °C
As of 11:54 AM on Thursday 23 Oct 2014 (Local Time) from PHOG Reporting Station
Scattered Clouds Scattered Clouds  
Wind Chill: 86°   Ceiling: Unl
Heat Index: 91°   Visibility: 10mi
Dew Point: 70°   Wind: 21mph
Humidity: 59%   Direction: 40°NE
Pressure: 30.05"   Gusts: NA
Location:  20.89°N, 156.5°W
Report Text: PHOG 232154Z 04018KT 10SM FEW040 SCT065 30/21 A3005 RMK AO2 SLP179 T03000211
Loading
Personal Weather Stations






























Interactive Weather Map
Tropical Storm Tracking
New forecast layout! Learn more

10-Day Weather Forecast

Advertisements
Track Severe Weather on mobile